createdAt,value
2022-07-25T00:01:32.631Z,99.90
2022-07-25T00:04:01.364Z,99.90
2022-07-25T00:06:30.879Z,99.90
2022-07-25T00:09:00.465Z,99.90
2022-07-25T00:11:28.807Z,99.90
2022-07-25T00:13:57.025Z,99.90
2022-07-25T00:16:25.334Z,99.90
2022-07-25T00:18:53.652Z,99.90
2022-07-25T00:21:21.902Z,99.90
2022-07-25T00:23:50.440Z,99.90
2022-07-25T00:26:20.258Z,99.90
2022-07-25T00:28:48.540Z,99.90
2022-07-25T00:31:16.724Z,99.90
2022-07-25T00:33:44.985Z,99.90
2022-07-25T00:36:13.464Z,99.90
2022-07-25T00:38:41.790Z,99.90
2022-07-25T00:41:09.988Z,99.90
2022-07-25T00:43:39.649Z,99.90
2022-07-25T00:46:08.074Z,99.90
2022-07-25T00:48:37.097Z,99.90
2022-07-25T00:51:05.651Z,99.90
2022-07-25T00:53:33.879Z,99.90
2022-07-25T00:56:02.137Z,99.90
2022-07-25T00:58:31.329Z,99.90
2022-07-25T01:01:01.755Z,99.90
2022-07-25T01:03:29.927Z,99.90
2022-07-25T01:05:58.378Z,99.90
2022-07-25T01:08:27.222Z,99.90
2022-07-25T01:10:55.323Z,99.90
2022-07-25T01:13:23.429Z,99.90
2022-07-25T01:15:51.646Z,99.90
2022-07-25T01:18:21.340Z,99.90
2022-07-25T01:20:51.041Z,99.90
2022-07-25T01:23:19.271Z,99.90
2022-07-25T01:25:47.509Z,99.90
2022-07-25T01:28:15.711Z,99.90
2022-07-25T01:30:43.999Z,99.90
2022-07-25T01:33:16.331Z,99.90
2022-07-25T01:35:44.605Z,99.90
2022-07-25T01:38:14.848Z,99.90
2022-07-25T01:40:43.779Z,99.90
2022-07-25T01:43:12.573Z,99.90
2022-07-25T01:45:40.716Z,99.90
2022-07-25T01:48:09.255Z,99.90
2022-07-25T01:50:37.754Z,99.90
2022-07-25T01:53:06.398Z,99.90
2022-07-25T01:55:37.114Z,99.90
2022-07-25T01:58:06.780Z,99.90
2022-07-25T02:00:35.968Z,99.90
2022-07-25T02:03:21.544Z,99.90
2022-07-25T02:05:49.705Z,99.90
2022-07-25T02:08:17.836Z,99.90
2022-07-25T02:10:47.782Z,99.90
2022-07-25T02:13:16.051Z,99.90
2022-07-25T02:15:44.161Z,99.90
2022-07-25T02:18:12.324Z,99.90
2022-07-25T02:20:40.480Z,99.90
2022-07-25T02:23:08.786Z,99.90
2022-07-25T02:25:36.904Z,99.90
2022-07-25T02:28:06.845Z,99.90
2022-07-25T02:30:35.669Z,99.90
2022-07-25T02:33:03.842Z,99.90
2022-07-25T02:35:32.006Z,99.90
2022-07-25T02:37:59.993Z,99.90
2022-07-25T02:40:28.427Z,99.90
2022-07-25T02:42:56.527Z,99.90
2022-07-25T02:45:26.393Z,99.90
2022-07-25T02:47:54.604Z,99.90
2022-07-25T02:50:24.903Z,99.90
2022-07-25T02:52:53.050Z,99.90
2022-07-25T02:55:21.308Z,99.90
2022-07-25T02:57:49.632Z,99.90
2022-07-25T03:00:18.781Z,99.90
2022-07-25T03:02:48.548Z,99.90
2022-07-25T03:05:18.379Z,99.90
2022-07-25T03:07:47.150Z,99.90
2022-07-25T03:10:16.505Z,99.90
2022-07-25T03:12:45.818Z,99.90
2022-07-25T03:15:15.092Z,99.90
2022-07-25T03:17:43.562Z,99.90
2022-07-25T03:20:13.665Z,99.90
2022-07-25T03:22:41.960Z,99.90
2022-07-25T03:25:15.799Z,99.90
2022-07-25T03:27:50.260Z,99.90
2022-07-25T03:30:18.531Z,99.90
2022-07-25T03:32:46.782Z,99.90
2022-07-25T03:35:16.679Z,99.90
2022-07-25T03:37:44.740Z,99.90
2022-07-25T03:40:14.435Z,99.90
2022-07-25T03:42:44.459Z,99.90
2022-07-25T03:45:12.861Z,99.90
2022-07-25T03:47:41.005Z,99.90
2022-07-25T03:50:09.902Z,99.90
2022-07-25T03:52:39.667Z,99.90
2022-07-25T03:55:09.300Z,99.90
2022-07-25T03:57:38.029Z,99.90
2022-07-25T04:00:08.917Z,99.90
2022-07-25T04:02:37.626Z,99.90
2022-07-25T04:05:07.056Z,99.90
2022-07-25T04:07:35.371Z,99.90
2022-07-25T04:10:05.486Z,99.90
2022-07-25T04:12:33.865Z,99.90
2022-07-25T04:15:02.221Z,99.90
2022-07-25T04:17:30.340Z,99.90
2022-07-25T04:19:58.469Z,99.90
2022-07-25T04:22:26.922Z,99.90
2022-07-25T04:24:54.856Z,99.90
2022-07-25T04:27:24.258Z,99.90
2022-07-25T04:29:52.316Z,99.90
2022-07-25T04:32:23.526Z,99.90
2022-07-25T04:34:54.860Z,99.90
2022-07-25T04:37:23.219Z,99.90
2022-07-25T04:39:51.470Z,99.90
2022-07-25T04:42:19.638Z,99.90
2022-07-25T04:44:51.725Z,99.90
2022-07-25T04:47:19.891Z,99.90
2022-07-25T04:49:48.078Z,99.90
2022-07-25T04:52:16.510Z,99.90
2022-07-25T04:54:44.825Z,99.90
2022-07-25T04:57:12.999Z,99.90
2022-07-25T04:59:41.187Z,99.90
2022-07-25T05:02:10.825Z,99.90
2022-07-25T05:04:44.769Z,99.90
2022-07-25T05:07:13.380Z,99.90
2022-07-25T05:09:41.482Z,99.90
2022-07-25T05:12:10.031Z,99.90
2022-07-25T05:14:38.394Z,99.90
2022-07-25T05:17:06.761Z,99.90
2022-07-25T05:19:36.196Z,99.90
2022-07-25T05:22:04.742Z,99.90
2022-07-25T05:24:34.559Z,99.90
2022-07-25T05:27:03.052Z,99.90
2022-07-25T05:29:31.517Z,99.90
2022-07-25T05:31:59.955Z,99.90
2022-07-25T05:34:28.199Z,99.90
2022-07-25T05:36:58.042Z,99.90
2022-07-25T05:39:26.604Z,99.90
2022-07-25T05:41:55.420Z,99.90
2022-07-25T05:44:23.625Z,99.90
2022-07-25T05:46:51.769Z,99.90
2022-07-25T05:49:20.246Z,99.90
2022-07-25T05:51:48.479Z,99.90
2022-07-25T05:54:18.512Z,99.90
2022-07-25T05:56:46.809Z,99.90
2022-07-25T05:59:15.029Z,99.90
2022-07-25T06:01:43.353Z,99.90
2022-07-25T06:04:13.166Z,99.90
2022-07-25T06:06:41.533Z,99.90
2022-07-25T06:09:09.703Z,99.90
2022-07-25T06:11:54.526Z,99.90
2022-07-25T06:14:27.702Z,99.90
2022-07-25T06:16:56.652Z,99.90
2022-07-25T06:19:24.792Z,99.90
2022-07-25T06:21:53.117Z,99.90
2022-07-25T06:24:21.296Z,99.90
2022-07-25T06:26:50.869Z,99.90
2022-07-25T06:29:19.252Z,99.90
2022-07-25T06:31:47.604Z,99.90
2022-07-25T06:34:16.080Z,99.90
2022-07-25T06:36:46.276Z,99.90
2022-07-25T06:39:15.044Z,99.90
2022-07-25T06:41:44.713Z,99.90
2022-07-25T06:44:17.884Z,99.90
2022-07-25T06:46:47.551Z,99.90
2022-07-25T06:49:19.098Z,99.90
2022-07-25T06:51:47.566Z,99.90
2022-07-25T06:54:15.965Z,99.90
2022-07-25T06:56:47.810Z,99.90
2022-07-25T06:59:19.353Z,99.90
2022-07-25T07:01:51.518Z,99.90
2022-07-25T07:04:20.246Z,99.90
2022-07-25T07:06:51.872Z,99.90
2022-07-25T07:09:21.112Z,99.90
2022-07-25T07:11:52.036Z,99.90
2022-07-25T07:14:21.786Z,99.90
2022-07-25T07:16:49.991Z,99.90
2022-07-25T07:19:18.623Z,99.90
2022-07-25T07:21:52.955Z,99.90
2022-07-25T07:24:24.611Z,99.90
2022-07-25T07:29:40.654Z,99.90
2022-07-25T07:32:10.546Z,99.90
2022-07-25T07:34:39.669Z,99.90
2022-07-25T07:37:09.028Z,99.90
2022-07-25T07:39:38.792Z,99.90
2022-07-25T07:42:30.070Z,99.90
2022-07-25T07:47:56.041Z,99.90
2022-07-25T07:50:41.754Z,99.90
2022-07-25T07:53:13.045Z,99.90
2022-07-25T07:55:55.808Z,99.90
2022-07-25T08:01:22.049Z,99.90
2022-07-25T08:03:56.942Z,99.90
2022-07-25T08:06:31.033Z,99.90
2022-07-25T08:09:24.422Z,99.90
2022-07-25T08:11:59.808Z,99.90
2022-07-25T08:17:12.875Z,99.90
2022-07-25T08:19:48.764Z,99.90
2022-07-25T08:22:31.701Z,99.90
2022-07-25T08:25:04.003Z,99.90
2022-07-25T08:27:32.470Z,99.90
2022-07-25T08:30:02.355Z,99.90
2022-07-25T08:32:57.500Z,99.90
2022-07-25T08:35:28.118Z,99.90
2022-07-25T08:37:57.037Z,99.90
2022-07-25T08:40:28.113Z,99.90
2022-07-25T08:46:09.905Z,99.90
2022-07-25T08:48:40.646Z,99.90
2022-07-25T08:51:09.790Z,99.90
2022-07-25T08:53:39.323Z,99.90
2022-07-25T08:56:14.555Z,99.90
2022-07-25T08:58:48.486Z,99.90
2022-07-25T09:01:19.329Z,99.90
2022-07-25T09:03:49.031Z,99.90
2022-07-25T09:06:24.975Z,99.90
2022-07-25T09:08:58.867Z,99.90
2022-07-25T09:11:33.773Z,99.90
2022-07-25T09:14:20.791Z,99.90
2022-07-25T09:26:11.712Z,99.90
2022-07-25T09:28:42.880Z,99.90
2022-07-25T09:31:19.189Z,99.90
2022-07-25T09:33:55.216Z,99.90
2022-07-25T09:40:02.550Z,99.90
2022-07-25T09:42:34.345Z,99.90
2022-07-25T09:45:20.312Z,99.90
2022-07-25T09:48:00.055Z,99.90
2022-07-25T09:50:29.749Z,99.90
2022-07-25T09:55:57.463Z,99.90
2022-07-25T09:58:28.553Z,99.90
2022-07-25T10:01:09.229Z,99.90
2022-07-25T10:03:52.606Z,99.90
2022-07-25T10:06:23.495Z,99.90
2022-07-25T10:12:15.934Z,99.90
2022-07-25T10:14:44.277Z,99.90
2022-07-25T10:17:22.829Z,99.90
2022-07-25T10:19:55.411Z,99.90
2022-07-25T10:22:58.678Z,99.90
2022-07-25T10:25:27.376Z,99.90
2022-07-25T10:28:01.489Z,99.90
2022-07-25T10:30:36.110Z,99.90
2022-07-25T10:33:06.636Z,99.90
2022-07-25T10:35:34.871Z,99.90
2022-07-25T10:38:05.995Z,99.90
2022-07-25T10:40:38.674Z,99.90
2022-07-25T10:43:15.512Z,99.90
2022-07-25T10:45:46.872Z,99.90
2022-07-25T10:48:23.036Z,99.90
2022-07-25T10:50:56.660Z,99.90
2022-07-25T10:53:35.792Z,99.90
2022-07-25T10:56:10.618Z,99.90
2022-07-25T10:58:50.920Z,99.50
2022-07-25T11:01:26.115Z,98.20
2022-07-25T11:03:56.068Z,98.50
2022-07-25T11:06:32.960Z,98.70
2022-07-25T11:09:02.016Z,98.80
2022-07-25T11:11:37.806Z,98.40
2022-07-25T11:14:16.263Z,97.40
2022-07-25T11:16:46.029Z,98.10
2022-07-25T11:19:19.109Z,98.10
2022-07-25T11:21:48.264Z,97.20
2022-07-25T11:24:17.434Z,97.00
2022-07-25T11:26:52.399Z,97.00
2022-07-25T11:29:27.426Z,94.70
2022-07-25T11:31:57.187Z,93.50
2022-07-25T11:34:29.180Z,93.50
2022-07-25T11:36:59.527Z,93.00
2022-07-25T11:39:28.679Z,92.50
2022-07-25T11:42:05.379Z,92.70
2022-07-25T11:44:36.794Z,92.30
2022-07-25T11:47:06.291Z,91.20
2022-07-25T11:49:46.624Z,90.30
2022-07-25T11:52:23.081Z,90.00
2022-07-25T11:54:53.436Z,88.80
2022-07-25T11:57:23.463Z,88.60
2022-07-25T11:59:53.525Z,88.10
2022-07-25T12:02:31.271Z,88.20
2022-07-25T12:05:04.829Z,86.40
2022-07-25T12:07:57.910Z,86.80
2022-07-25T12:10:34.866Z,84.80
2022-07-25T12:13:04.527Z,81.60
2022-07-25T12:15:39.506Z,82.60
2022-07-25T12:18:11.117Z,81.80
2022-07-25T12:20:46.091Z,79.60
2022-07-25T12:23:16.177Z,77.00
2022-07-25T12:25:49.194Z,79.00
2022-07-25T12:28:18.362Z,80.20
2022-07-25T12:30:56.001Z,78.50
2022-07-25T12:33:27.926Z,78.70
2022-07-25T12:35:56.488Z,79.00
2022-07-25T12:38:24.903Z,79.60
2022-07-25T12:41:07.233Z,78.20
2022-07-25T12:43:35.496Z,78.70
2022-07-25T12:46:09.737Z,79.50
2022-07-25T12:48:39.044Z,77.60
2022-07-25T12:51:08.777Z,77.60
2022-07-25T12:53:41.738Z,78.50
2022-07-25T12:56:11.679Z,79.10
2022-07-25T12:58:39.927Z,77.00
2022-07-25T13:01:13.661Z,78.20
2022-07-25T13:03:45.709Z,78.10
2022-07-25T13:06:13.814Z,77.10
2022-07-25T13:08:44.371Z,78.40
2022-07-25T13:11:13.173Z,78.30
2022-07-25T13:13:43.996Z,76.50
2022-07-25T13:16:15.894Z,77.60
2022-07-25T13:18:44.414Z,75.40
2022-07-25T13:21:12.968Z,76.60
2022-07-25T13:23:43.806Z,77.50
2022-07-25T13:26:13.024Z,76.70
2022-07-25T13:28:45.000Z,75.50
2022-07-25T13:31:17.693Z,75.70
2022-07-25T13:33:46.281Z,73.90
2022-07-25T13:36:15.328Z,73.90
2022-07-25T13:38:44.728Z,71.40
2022-07-25T13:41:16.599Z,73.90
2022-07-25T13:43:48.509Z,71.60
2022-07-25T13:46:18.361Z,72.00
2022-07-25T13:48:48.886Z,71.10
2022-07-25T13:51:20.113Z,72.00
2022-07-25T13:53:51.403Z,71.20
2022-07-25T13:56:20.014Z,72.10
2022-07-25T13:58:48.620Z,70.50
2022-07-25T14:01:19.246Z,69.70
2022-07-25T14:03:48.126Z,69.80
2022-07-25T14:06:16.704Z,68.00
2022-07-25T14:08:45.262Z,68.50
2022-07-25T14:11:15.943Z,66.90
2022-07-25T14:13:45.349Z,68.40
2022-07-25T14:16:21.252Z,67.90
2022-07-25T14:18:53.141Z,66.30
2022-07-25T14:21:22.935Z,69.10
2022-07-25T14:23:53.442Z,69.50
2022-07-25T14:26:23.055Z,68.10
2022-07-25T14:28:53.822Z,68.60
2022-07-25T14:31:25.767Z,67.20
2022-07-25T14:33:54.543Z,67.10
2022-07-25T14:39:02.515Z,67.70
2022-07-25T14:41:43.282Z,66.80
2022-07-25T14:44:17.291Z,67.30
2022-07-25T14:46:51.993Z,66.10
2022-07-25T14:49:21.722Z,66.30
2022-07-25T14:51:50.479Z,65.20
2022-07-25T14:54:19.768Z,65.60
2022-07-25T14:57:08.867Z,64.40
2022-07-25T14:59:50.982Z,66.20
2022-07-25T15:02:24.123Z,64.10
2022-07-25T15:04:53.013Z,65.50
2022-07-25T15:07:25.426Z,65.00
2022-07-25T15:09:58.058Z,64.70
2022-07-25T15:12:27.246Z,64.60
2022-07-25T15:14:57.232Z,63.60
2022-07-25T15:17:27.069Z,62.90
2022-07-25T15:19:55.310Z,62.60
2022-07-25T15:22:28.216Z,61.80
2022-07-25T15:28:07.492Z,60.20
2022-07-25T15:30:51.947Z,59.50
2022-07-25T15:33:31.283Z,57.30
2022-07-25T15:36:28.813Z,56.70
2022-07-25T15:39:00.752Z,55.40
2022-07-25T15:41:41.565Z,56.00
2022-07-25T15:44:10.579Z,55.60
2022-07-25T15:46:49.570Z,55.60
2022-07-25T15:49:20.274Z,55.30
2022-07-25T15:51:50.064Z,54.70
2022-07-25T15:54:18.333Z,53.60
2022-07-25T15:56:46.885Z,51.00
2022-07-25T15:59:16.377Z,51.70
2022-07-25T16:01:55.968Z,52.30
2022-07-25T16:04:30.873Z,51.40
2022-07-25T16:06:59.448Z,51.40
2022-07-25T16:09:28.097Z,51.80
2022-07-25T16:11:56.448Z,51.50
2022-07-25T16:14:24.933Z,51.90
2022-07-25T16:16:57.041Z,52.60
2022-07-25T16:19:26.862Z,52.40
2022-07-25T16:21:57.332Z,53.40
2022-07-25T16:24:25.651Z,51.60
2022-07-25T16:26:54.029Z,52.00
2022-07-25T16:29:23.285Z,54.00
2022-07-25T16:31:54.276Z,54.00
2022-07-25T16:34:28.622Z,54.40
2022-07-25T16:37:02.984Z,54.10
2022-07-25T16:39:32.023Z,54.90
2022-07-25T16:42:00.278Z,55.50
2022-07-25T16:44:28.639Z,54.80
2022-07-25T16:46:57.473Z,55.00
2022-07-25T16:49:26.089Z,55.90
2022-07-25T16:51:54.527Z,56.10
2022-07-25T16:54:26.173Z,56.10
2022-07-25T16:56:58.290Z,56.90
2022-07-25T16:59:27.898Z,57.10
2022-07-25T17:01:58.947Z,57.70
2022-07-25T17:04:27.374Z,58.60
2022-07-25T17:06:56.144Z,59.10
2022-07-25T17:09:25.830Z,58.20
2022-07-25T17:11:55.260Z,59.60
2022-07-25T17:14:27.881Z,60.40
2022-07-25T17:16:59.085Z,61.80
2022-07-25T17:19:28.318Z,62.80
2022-07-25T17:22:04.530Z,62.60
2022-07-25T17:24:35.724Z,61.70
2022-07-25T17:27:06.323Z,63.80
2022-07-25T17:29:35.617Z,61.50
2022-07-25T17:32:06.780Z,64.00
2022-07-25T17:34:36.701Z,64.80
2022-07-25T17:37:06.700Z,64.70
2022-07-25T17:39:37.124Z,64.40
2022-07-25T17:42:08.286Z,65.70
2022-07-25T17:44:38.857Z,65.60
2022-07-25T17:47:07.925Z,66.80
2022-07-25T17:49:36.481Z,67.30
2022-07-25T17:52:05.622Z,65.20
2022-07-25T17:54:40.918Z,68.30
2022-07-25T17:57:11.760Z,67.30
2022-07-25T17:59:43.794Z,69.10
2022-07-25T18:02:19.452Z,69.20
2022-07-25T18:04:50.966Z,69.00
2022-07-25T18:07:21.653Z,69.10
2022-07-25T18:09:54.214Z,69.90
2022-07-25T18:12:27.437Z,71.00
2022-07-25T18:14:57.515Z,71.30
2022-07-25T18:17:25.703Z,73.90
2022-07-25T18:19:53.852Z,74.60
2022-07-25T18:22:22.514Z,74.30
2022-07-25T18:24:52.257Z,75.50
2022-07-25T18:27:20.647Z,75.50
2022-07-25T18:29:48.705Z,75.60
2022-07-25T18:32:16.891Z,76.00
2022-07-25T18:34:45.241Z,76.90
2022-07-25T18:37:13.790Z,76.90
2022-07-25T18:39:42.976Z,76.30
2022-07-25T18:42:12.808Z,78.70
2022-07-25T18:44:41.618Z,77.80
2022-07-25T18:47:09.897Z,78.80
2022-07-25T18:49:38.263Z,79.40
2022-07-25T18:52:07.017Z,80.10
2022-07-25T18:54:35.934Z,79.90
2022-07-25T18:57:06.487Z,80.50
2022-07-25T18:59:37.199Z,81.90
2022-07-25T19:02:05.578Z,82.30
2022-07-25T19:04:34.036Z,82.30
2022-07-25T19:07:02.312Z,83.10
2022-07-25T19:09:30.259Z,83.30
2022-07-25T19:11:58.255Z,83.50
2022-07-25T19:14:27.359Z,84.40
2022-07-25T19:16:57.519Z,84.30
2022-07-25T19:19:25.985Z,85.20
2022-07-25T19:21:54.692Z,85.70
2022-07-25T19:24:23.267Z,86.50
2022-07-25T19:26:51.382Z,86.50
2022-07-25T19:29:19.669Z,87.50
2022-07-25T19:31:47.756Z,87.40
2022-07-25T19:34:17.129Z,87.70
2022-07-25T19:36:45.923Z,88.10
2022-07-25T19:39:14.649Z,89.50
2022-07-25T19:41:47.040Z,88.70
2022-07-25T19:44:15.460Z,88.60
2022-07-25T19:46:43.496Z,89.50
2022-07-25T19:49:11.715Z,89.60
2022-07-25T19:51:41.165Z,89.70
2022-07-25T19:54:09.790Z,90.00
2022-07-25T19:56:38.089Z,90.30
2022-07-25T19:59:06.319Z,90.60
2022-07-25T20:01:35.931Z,90.80
2022-07-25T20:04:05.572Z,91.00
2022-07-25T20:06:34.093Z,91.00
2022-07-25T20:09:03.906Z,91.00
2022-07-25T20:11:32.612Z,91.30
2022-07-25T20:14:01.794Z,91.30
2022-07-25T20:16:30.052Z,91.50
2022-07-25T20:18:58.548Z,91.50
2022-07-25T20:21:27.378Z,91.70
2022-07-25T20:23:55.824Z,92.30
2022-07-25T20:26:25.638Z,92.40
2022-07-25T20:28:55.151Z,92.90
2022-07-25T20:31:25.461Z,93.60
2022-07-25T20:33:54.045Z,94.70
2022-07-25T20:36:22.658Z,96.80
2022-07-25T20:38:51.013Z,93.50
2022-07-25T20:41:20.583Z,92.60
2022-07-25T20:43:52.079Z,97.70
2022-07-25T20:46:20.103Z,99.90
2022-07-25T20:48:48.879Z,99.90
2022-07-25T20:51:17.435Z,99.90
2022-07-25T20:53:45.695Z,99.90
2022-07-25T20:56:21.760Z,99.90
2022-07-25T20:58:52.085Z,99.90
2022-07-25T21:01:20.491Z,99.90
2022-07-25T21:03:48.500Z,99.90
2022-07-25T21:06:16.945Z,99.90
2022-07-25T21:08:45.050Z,99.90
2022-07-25T21:11:13.907Z,99.90
2022-07-25T21:13:42.156Z,99.90
2022-07-25T21:16:11.938Z,99.90
2022-07-25T21:18:40.128Z,99.90
2022-07-25T21:21:12.077Z,99.90
2022-07-25T21:23:40.507Z,99.90
2022-07-25T21:26:08.866Z,99.90
2022-07-25T21:28:37.020Z,99.90
2022-07-25T21:31:05.231Z,99.90
2022-07-25T21:33:34.769Z,99.90
2022-07-25T21:36:03.011Z,99.90
2022-07-25T21:38:34.852Z,99.90
2022-07-25T21:41:14.498Z,99.90
2022-07-25T21:43:46.807Z,99.90
2022-07-25T21:46:18.336Z,99.90
2022-07-25T21:49:07.246Z,99.90
2022-07-25T21:51:41.245Z,99.90
2022-07-25T21:54:24.455Z,99.90
2022-07-25T21:56:54.431Z,99.90
2022-07-25T21:59:24.057Z,99.90
2022-07-25T22:01:52.756Z,99.90
2022-07-25T22:04:24.612Z,99.90
2022-07-25T22:06:53.802Z,99.90
2022-07-25T22:09:22.890Z,99.90
2022-07-25T22:11:51.709Z,99.90
2022-07-25T22:14:20.694Z,99.90
2022-07-25T22:16:49.421Z,99.90
2022-07-25T22:19:22.315Z,99.90
2022-07-25T22:21:56.060Z,99.90
2022-07-25T22:24:30.494Z,99.90
2022-07-25T22:32:24.485Z,99.90
2022-07-25T22:35:09.981Z,99.90
2022-07-25T22:37:43.445Z,99.90
2022-07-25T22:48:27.015Z,99.90
2022-07-25T22:50:59.640Z,99.90
2022-07-25T22:53:29.488Z,99.90
2022-07-25T22:55:57.613Z,99.90
2022-07-25T22:58:28.188Z,99.90
2022-07-25T23:00:57.228Z,99.90
2022-07-25T23:03:31.481Z,99.90
2022-07-25T23:06:02.716Z,99.90
2022-07-25T23:08:32.482Z,99.90
2022-07-25T23:11:01.045Z,99.90
2022-07-25T23:13:29.148Z,99.90
2022-07-25T23:15:57.391Z,99.90
2022-07-25T23:18:25.608Z,99.90
2022-07-25T23:20:53.692Z,99.90
2022-07-25T23:23:22.141Z,99.90
2022-07-25T23:25:51.836Z,99.90
2022-07-25T23:28:20.923Z,99.90
2022-07-25T23:30:49.061Z,99.90
2022-07-25T23:33:17.204Z,99.90
2022-07-25T23:35:50.000Z,99.90
2022-07-25T23:38:19.753Z,99.90
2022-07-25T23:40:48.282Z,99.90
2022-07-25T23:43:52.206Z,99.90
2022-07-25T23:46:08.594Z,99.90
2022-07-25T23:48:37.831Z,99.90
2022-07-25T23:51:07.480Z,99.90
2022-07-25T23:53:37.503Z,99.90
2022-07-25T23:56:06.505Z,99.90
2022-07-25T23:58:38.172Z,99.90
